Time;durP1;ratioP1;P1;durP2;ratioP2;P2;SDS_P1;SDS_P2;PMS_P1;PMS_P2;Temp;Humidity;BMP_temperature;BMP_pressure;BME280_temperature;BME280_humidity;BME280_pressure;Samples;Min_cycle;Max_cycle;Signal;HPM_P1;HPM_P2
2023/03/15 00:01:26;;;;;;;1.23;1.20;;;;;;;;;;6212848;28;20305;-72
2023/03/15 00:04:32;;;;;;;1.00;1.00;;;;;;;;;;6212383;28;20490;-72
2023/03/15 00:07:37;;;;;;;0.90;0.90;;;;;;;;;;6214335;28;20304;-73
2023/03/15 00:10:42;;;;;;;0.90;0.90;;;;;;;;;;6218859;28;20284;-73
2023/03/15 00:13:50;;;;;;;0.93;0.93;;;;;;;;;;6236431;28;20548;-73
2023/03/15 00:16:55;;;;;;;0.90;0.90;;;;;;;;;;6236861;28;20295;-74
2023/03/15 00:20:00;;;;;;;0.93;0.93;;;;;;;;;;6236711;28;20468;-73
2023/03/15 00:23:06;;;;;;;0.90;0.90;;;;;;;;;;6236645;28;20306;-73
2023/03/15 00:26:12;;;;;;;0.90;0.90;;;;;;;;;;6236734;28;20378;-73
2023/03/15 00:29:20;;;;;;;0.80;0.80;;;;;;;;;;6235392;28;20326;-74
2023/03/15 00:32:26;;;;;;;0.90;0.90;;;;;;;;;;6237570;28;20292;-73
2023/03/15 00:35:32;;;;;;;1.13;1.13;;;;;;;;;;6237053;28;20299;-73
2023/03/15 00:38:39;;;;;;;2.20;0.90;;;;;;;;;;6214356;28;20300;-72
2023/03/15 00:41:44;;;;;;;0.90;0.90;;;;;;;;;;6211400;28;20300;-73
2023/03/15 00:44:51;;;;;;;0.90;0.90;;;;;;;;;;6210539;28;20312;-74
2023/03/15 00:47:56;;;;;;;0.93;0.93;;;;;;;;;;6211929;28;20483;-75
2023/03/15 00:51:12;;;;;;;0.80;0.80;;;;;;;;;;6212833;28;20382;-73
2023/03/15 00:54:17;;;;;;;0.90;0.90;;;;;;;;;;6212403;28;20292;-73
2023/03/15 00:57:22;;;;;;;0.90;0.90;;;;;;;;;;6210917;28;20292;-75
2023/03/15 01:00:29;;;;;;;1.10;1.07;;;;;;;;;;6211019;28;20292;-75
2023/03/15 01:03:34;;;;;;;1.00;1.00;;;;;;;;;;6212586;28;20459;-73
2023/03/15 01:06:41;;;;;;;1.10;1.00;;;;;;;;;;6213014;28;20296;-75
2023/03/15 01:09:47;;;;;;;1.57;1.00;;;;;;;;;;6209972;28;20299;-73
2023/03/15 01:12:52;;;;;;;1.30;0.90;;;;;;;;;;6231614;28;20578;-73
2023/03/15 01:15:59;;;;;;;1.13;0.90;;;;;;;;;;6234638;28;20310;-73
2023/03/15 01:19:04;;;;;;;2.93;1.00;;;;;;;;;;6233799;28;20291;-73
2023/03/15 01:22:12;;;;;;;0.80;0.80;;;;;;;;;;6233810;28;20298;-73
2023/03/15 01:25:17;;;;;;;1.50;0.90;;;;;;;;;;6234230;28;20292;-73
2023/03/15 01:28:22;;;;;;;1.50;1.00;;;;;;;;;;6236147;28;20511;-74
2023/03/15 01:31:30;;;;;;;0.90;0.90;;;;;;;;;;6234051;28;20287;-74
2023/03/15 01:34:36;;;;;;;1.00;1.00;;;;;;;;;;6232702;28;20301;-73
2023/03/15 01:37:41;;;;;;;0.80;0.80;;;;;;;;;;6221314;28;20270;-73
2023/03/15 01:40:47;;;;;;;0.80;0.80;;;;;;;;;;6210499;28;20292;-74
2023/03/15 01:43:53;;;;;;;0.80;0.80;;;;;;;;;;6208691;28;20301;-74
2023/03/15 01:47:00;;;;;;;0.97;0.97;;;;;;;;;;6210706;28;20301;-74
2023/03/15 01:50:08;;;;;;;0.90;0.90;;;;;;;;;;6208622;28;20298;-75
2023/03/15 01:53:14;;;;;;;0.90;0.90;;;;;;;;;;6209060;28;20301;-73
2023/03/15 01:56:19;;;;;;;0.90;0.90;;;;;;;;;;6208786;28;20362;-73
2023/03/15 01:59:29;;;;;;;0.80;0.80;;;;;;;;;;6208686;28;20300;-73
2023/03/15 02:02:36;;;;;;;0.90;0.90;;;;;;;;;;6213727;28;20301;-74
2023/03/15 02:05:45;;;;;;;0.80;0.80;;;;;;;;;;6213549;28;20574;-73
2023/03/15 02:08:59;;;;;;;0.83;0.83;;;;;;;;;;6213357;28;20297;-73
2023/03/15 02:12:10;;;;;;;0.77;0.77;;;;;;;;;;6229494;28;20298;-74
2023/03/15 02:15:16;;;;;;;0.90;0.90;;;;;;;;;;6237824;28;20297;-73
2023/03/15 02:18:23;;;;;;;1.03;1.00;;;;;;;;;;6238198;28;20289;-74
2023/03/15 02:21:41;;;;;;;0.80;0.80;;;;;;;;;;6237849;28;20370;-74
2023/03/15 02:24:54;;;;;;;0.80;0.80;;;;;;;;;;6238827;28;20300;-74
2023/03/15 02:28:03;;;;;;;0.87;0.87;;;;;;;;;;6238086;28;20301;-74
2023/03/15 02:31:11;;;;;;;0.73;0.73;;;;;;;;;;6238705;28;20319;-74
2023/03/15 02:34:16;;;;;;;1.23;0.90;;;;;;;;;;6237830;28;20300;-74
2023/03/15 02:37:21;;;;;;;0.90;0.90;;;;;;;;;;6227261;28;20301;-74
2023/03/15 02:40:29;;;;;;;0.90;0.90;;;;;;;;;;6213142;28;20558;-74
2023/03/15 02:43:36;;;;;;;0.87;0.87;;;;;;;;;;6212089;28;20296;-73
2023/03/15 02:46:42;;;;;;;0.83;0.80;;;;;;;;;;6214549;28;20520;-74
2023/03/15 02:49:50;;;;;;;1.23;0.90;;;;;;;;;;6212570;28;20596;-74
2023/03/15 02:52:55;;;;;;;0.83;0.83;;;;;;;;;;6215451;28;20301;-73
2023/03/15 02:56:01;;;;;;;1.03;0.90;;;;;;;;;;6215107;28;20297;-73
2023/03/15 02:59:08;;;;;;;0.80;0.80;;;;;;;;;;6212421;28;20290;-73
2023/03/15 03:02:14;;;;;;;0.90;0.90;;;;;;;;;;6212587;28;20453;-74
2023/03/15 03:05:20;;;;;;;0.80;0.80;;;;;;;;;;6213361;28;20296;-74
2023/03/15 03:08:25;;;;;;;1.00;1.00;;;;;;;;;;6213951;28;20402;-72
2023/03/15 03:11:30;;;;;;;1.00;1.00;;;;;;;;;;6222177;28;20303;-73
2023/03/15 03:14:37;;;;;;;1.03;1.00;;;;;;;;;;6236279;28;20300;-73
2023/03/15 03:17:47;;;;;;;0.90;0.90;;;;;;;;;;6237223;28;20293;-73
2023/03/15 03:20:55;;;;;;;0.87;0.87;;;;;;;;;;6236406;28;20301;-74
2023/03/15 03:24:00;;;;;;;1.50;1.00;;;;;;;;;;6240610;28;20486;-73
2023/03/15 03:27:06;;;;;;;1.10;0.90;;;;;;;;;;6239290;28;20292;-72
2023/03/15 03:30:16;;;;;;;1.40;0.90;;;;;;;;;;6236480;28;20297;-73
2023/03/15 03:33:26;;;;;;;2.10;0.90;;;;;;;;;;6236235;28;20297;-73
2023/03/15 03:36:31;;;;;;;0.90;0.90;;;;;;;;;;6232298;28;20296;-74
2023/03/15 03:39:37;;;;;;;1.10;1.00;;;;;;;;;;6213172;28;20485;-74
2023/03/15 03:42:42;;;;;;;1.10;0.90;;;;;;;;;;6212218;28;20572;-74
2023/03/15 03:45:48;;;;;;;1.10;1.10;;;;;;;;;;6211671;28;20300;-74
2023/03/15 03:48:54;;;;;;;0.90;0.90;;;;;;;;;;6211837;28;20289;-74
2023/03/15 03:52:00;;;;;;;1.13;0.80;;;;;;;;;;6212153;28;20293;-74
2023/03/15 03:55:06;;;;;;;0.80;0.80;;;;;;;;;;6212013;28;20296;-73
2023/03/15 03:58:14;;;;;;;0.90;0.90;;;;;;;;;;6213469;28;20483;-75
2023/03/15 04:01:29;;;;;;;0.80;0.80;;;;;;;;;;6223262;28;20300;-74
2023/03/15 04:04:35;;;;;;;0.80;0.80;;;;;;;;;;6220206;28;20315;-72
2023/03/15 04:07:44;;;;;;;0.90;0.90;;;;;;;;;;6215290;28;20572;-74
2023/03/15 04:10:53;;;;;;;0.90;0.90;;;;;;;;;;6227316;28;20301;-74
2023/03/15 04:14:00;;;;;;;0.80;0.80;;;;;;;;;;6213155;28;20291;-73
2023/03/15 04:17:07;;;;;;;1.00;1.00;;;;;;;;;;6213140;28;20582;-75
2023/03/15 04:20:23;;;;;;;1.07;1.00;;;;;;;;;;6231436;28;20292;-75
2023/03/15 04:23:29;;;;;;;1.00;1.00;;;;;;;;;;6237664;28;20299;-73
2023/03/15 04:27:06;;;;;;;1.00;1.00;;;;;;;;;;6204318;28;20292;-74
2023/03/15 04:30:29;;;;;;;1.50;0.80;;;;;;;;;;6237675;28;20299;-74
2023/03/15 04:33:55;;;;;;;0.90;0.90;;;;;;;;;;6236353;28;20319;-75
2023/03/15 04:37:19;;;;;;;1.10;1.10;;;;;;;;;;6231391;28;20283;-74
2023/03/15 04:40:41;;;;;;;1.03;1.03;;;;;;;;;;6234821;28;20287;-74
2023/03/15 04:43:58;;;;;;;1.23;1.10;;;;;;;;;;6234809;28;20570;-72
2023/03/15 04:47:22;;;;;;;1.27;1.17;;;;;;;;;;6237073;28;20299;-73
2023/03/15 04:50:49;;;;;;;2.07;1.07;;;;;;;;;;6215097;28;20300;-73
2023/03/15 04:54:07;;;;;;;1.20;1.20;;;;;;;;;;6234926;28;20303;-72
2023/03/15 04:57:27;;;;;;;1.10;1.10;;;;;;;;;;6235421;28;20310;-73
2023/03/15 05:01:06;;;;;;;2.07;1.23;;;;;;;;;;6235014;28;20300;-74
2023/03/15 05:04:34;;;;;;;1.10;1.10;;;;;;;;;;6235862;28;20442;-73
2023/03/15 05:08:01;;;;;;;1.43;1.00;;;;;;;;;;6234352;28;20390;-74
2023/03/15 05:11:25;;;;;;;1.00;1.00;;;;;;;;;;6235840;28;20299;-73
2023/03/15 05:14:43;;;;;;;1.00;1.00;;;;;;;;;;6233864;28;20311;-73
2023/03/15 05:18:07;;;;;;;0.90;0.90;;;;;;;;;;6235773;28;20291;-73
2023/03/15 05:21:42;;;;;;;1.17;1.13;;;;;;;;;;6231383;28;20299;-73
2023/03/15 05:24:48;;;;;;;0.90;0.90;;;;;;;;;;6235686;28;20300;-74
2023/03/15 05:28:19;;;;;;;1.10;1.00;;;;;;;;;;6235722;28;20575;-72
2023/03/15 05:31:36;;;;;;;0.90;0.90;;;;;;;;;;6235504;28;20280;-74
2023/03/15 05:34:53;;;;;;;1.03;1.03;;;;;;;;;;6233709;28;20435;-73
2023/03/15 05:38:17;;;;;;;1.27;1.27;;;;;;;;;;6253590;28;20297;-74
2023/03/15 05:41:52;;;;;;;1.60;1.30;;;;;;;;;;6259429;28;20298;-74
2023/03/15 05:45:22;;;;;;;1.00;1.00;;;;;;;;;;6249705;28;20299;-74
2023/03/15 05:48:31;;;;;;;1.30;1.30;;;;;;;;;;6259503;28;20291;-74
2023/03/15 05:51:56;;;;;;;1.13;1.13;;;;;;;;;;6260774;28;20299;-72
2023/03/15 05:55:01;;;;;;;1.10;1.10;;;;;;;;;;6259373;28;20298;-72
2023/03/15 05:58:28;;;;;;;1.10;1.10;;;;;;;;;;6255323;28;20296;-71
2023/03/15 06:01:57;;;;;;;1.20;1.20;;;;;;;;;;6240545;28;20460;-74
2023/03/15 06:05:09;;;;;;;1.17;1.17;;;;;;;;;;6258824;28;20290;-74
2023/03/15 06:08:15;;;;;;;1.20;1.20;;;;;;;;;;6258936;28;20308;-73
2023/03/15 06:11:23;;;;;;;1.10;1.10;;;;;;;;;;6243446;28;20295;-73
2023/03/15 06:14:31;;;;;;;1.30;1.07;;;;;;;;;;6233439;28;20594;-72
2023/03/15 06:17:42;;;;;;;1.20;1.20;;;;;;;;;;6233921;28;20295;-71
2023/03/15 06:20:47;;;;;;;2.37;1.40;;;;;;;;;;6234529;28;20394;-73
2023/03/15 06:23:54;;;;;;;1.27;1.27;;;;;;;;;;6234361;28;20304;-75
2023/03/15 06:27:00;;;;;;;1.40;1.40;;;;;;;;;;6234086;28;20304;-74
2023/03/15 06:30:09;;;;;;;0.93;0.93;;;;;;;;;;6234822;28;20306;-74
2023/03/15 06:33:15;;;;;;;1.17;1.17;;;;;;;;;;6233705;28;20299;-73
2023/03/15 06:36:21;;;;;;;1.63;1.53;;;;;;;;;;6237476;28;20278;-73
2023/03/15 06:39:27;;;;;;;1.27;1.27;;;;;;;;;;6260138;28;20322;-73
2023/03/15 06:42:32;;;;;;;1.20;1.20;;;;;;;;;;6260412;28;20291;-74
2023/03/15 06:45:39;;;;;;;1.20;1.20;;;;;;;;;;6258754;28;20295;-74
2023/03/15 06:48:44;;;;;;;1.30;1.30;;;;;;;;;;6262609;28;20447;-74
2023/03/15 06:51:51;;;;;;;1.63;1.50;;;;;;;;;;6263902;28;20292;-74
2023/03/15 06:55:00;;;;;;;1.30;1.13;;;;;;;;;;6264123;28;20288;-74
2023/03/15 06:58:05;;;;;;;1.83;1.67;;;;;;;;;;6263129;28;20455;-73
2023/03/15 07:01:14;;;;;;;1.20;1.20;;;;;;;;;;6264353;28;20292;-73
2023/03/15 07:04:20;;;;;;;1.20;1.10;;;;;;;;;;6261865;28;20298;-74
2023/03/15 07:07:25;;;;;;;1.80;1.10;;;;;;;;;;6263628;28;20305;-74
2023/03/15 07:10:30;;;;;;;1.10;1.10;;;;;;;;;;6254428;28;20296;-74
2023/03/15 07:13:36;;;;;;;1.20;1.20;;;;;;;;;;6238378;28;20312;-74
2023/03/15 07:16:43;;;;;;;1.30;1.20;;;;;;;;;;6239457;28;20480;-75
2023/03/15 07:19:48;;;;;;;1.10;1.10;;;;;;;;;;6242486;28;20305;-74
2023/03/15 07:23:00;;;;;;;1.77;1.20;;;;;;;;;;6240860;28;20477;-74
2023/03/15 07:26:06;;;;;;;2.00;1.20;;;;;;;;;;6240237;28;20304;-74
2023/03/15 07:29:12;;;;;;;2.20;1.20;;;;;;;;;;6238843;28;20293;-73
2023/03/15 07:32:19;;;;;;;1.10;1.10;;;;;;;;;;6239890;28;20313;-73
2023/03/15 07:35:24;;;;;;;5.00;1.20;;;;;;;;;;6238691;28;20292;-73
2023/03/15 07:38:30;;;;;;;1.20;1.10;;;;;;;;;;6257282;28;20319;-74
2023/03/15 07:41:35;;;;;;;1.10;1.10;;;;;;;;;;6263657;28;20303;-74
2023/03/15 07:44:51;;;;;;;1.20;1.00;;;;;;;;;;6261360;28;20491;-73
2023/03/15 07:47:59;;;;;;;1.50;1.33;;;;;;;;;;6262017;28;20301;-75
2023/03/15 07:51:04;;;;;;;2.70;1.20;;;;;;;;;;6262632;28;20296;-74
2023/03/15 07:54:10;;;;;;;1.10;1.10;;;;;;;;;;6262038;28;20307;-75
2023/03/15 07:57:15;;;;;;;1.63;1.50;;;;;;;;;;6262602;28;20513;-73
2023/03/15 08:00:21;;;;;;;4.30;1.20;;;;;;;;;;6260347;28;20300;-75
2023/03/15 08:03:28;;;;;;;1.03;1.00;;;;;;;;;;6262073;28;20300;-74
2023/03/15 08:06:33;;;;;;;1.07;1.07;;;;;;;;;;6262554;28;20307;-74
2023/03/15 08:09:39;;;;;;;1.53;1.03;;;;;;;;;;6259906;28;20484;-74
2023/03/15 08:12:44;;;;;;;2.53;1.20;;;;;;;;;;6237604;28;20291;-76
2023/03/15 08:15:49;;;;;;;3.50;1.30;;;;;;;;;;6238391;28;20297;-74
2023/03/15 08:18:56;;;;;;;1.10;1.10;;;;;;;;;;6238151;28;20296;-74
2023/03/15 08:22:01;;;;;;;1.00;1.00;;;;;;;;;;6236502;28;20380;-75
2023/03/15 08:25:08;;;;;;;1.13;1.13;;;;;;;;;;6237104;28;20496;-74
2023/03/15 08:28:13;;;;;;;1.00;1.00;;;;;;;;;;6236951;28;20302;-75
2023/03/15 08:31:19;;;;;;;2.43;1.10;;;;;;;;;;6237563;28;20500;-75
2023/03/15 08:34:25;;;;;;;1.37;1.10;;;;;;;;;;6237168;28;20296;-74
2023/03/15 08:37:31;;;;;;;1.23;1.00;;;;;;;;;;6249584;28;20433;-75
2023/03/15 08:40:37;;;;;;;1.03;0.90;;;;;;;;;;6260622;28;20274;-74
2023/03/15 08:43:43;;;;;;;1.00;1.00;;;;;;;;;;6260986;28;20364;-74
2023/03/15 08:46:49;;;;;;;1.20;1.10;;;;;;;;;;6261445;28;20296;-74
2023/03/15 08:49:55;;;;;;;3.43;1.10;;;;;;;;;;6259885;28;20294;-75
2023/03/15 08:53:01;;;;;;;1.20;1.07;;;;;;;;;;6260557;28;20294;-74
2023/03/15 08:56:06;;;;;;;1.00;1.00;;;;;;;;;;6261396;28;20287;-75
2023/03/15 08:59:13;;;;;;;1.10;1.00;;;;;;;;;;6260324;28;20506;-75
2023/03/15 09:02:29;;;;;;;1.10;1.10;;;;;;;;;;6260600;28;20296;-73
2023/03/15 09:05:36;;;;;;;1.03;1.03;;;;;;;;;;6260201;28;20302;-74
2023/03/15 09:08:41;;;;;;;0.90;0.90;;;;;;;;;;6258776;28;20302;-74
2023/03/15 09:11:48;;;;;;;1.10;1.03;;;;;;;;;;6243105;28;20457;-74
2023/03/15 09:14:53;;;;;;;0.90;0.90;;;;;;;;;;6235514;28;20302;-74
2023/03/15 09:17:58;;;;;;;1.70;1.30;;;;;;;;;;6236330;28;20470;-74
2023/03/15 09:21:06;;;;;;;2.60;1.37;;;;;;;;;;6237591;28;20307;-72
2023/03/15 09:24:11;;;;;;;1.27;0.90;;;;;;;;;;6236311;28;20459;-74
2023/03/15 09:27:16;;;;;;;1.30;1.30;;;;;;;;;;6236037;28;20296;-73
2023/03/15 09:30:22;;;;;;;1.70;1.30;;;;;;;;;;6235995;28;20299;-74
2023/03/15 09:33:27;;;;;;;2.53;1.13;;;;;;;;;;6235691;28;20305;-74
2023/03/15 09:36:34;;;;;;;1.20;1.10;;;;;;;;;;6240638;28;20283;-75
2023/03/15 09:39:39;;;;;;;1.80;1.17;;;;;;;;;;6259984;28;20299;-74
2023/03/15 09:43:04;;;;;;;0.90;0.90;;;;;;;;;;6260006;28;20551;-75
2023/03/15 09:46:24;;;;;;;1.00;1.00;;;;;;;;;;6248394;28;20300;-73
2023/03/15 09:49:37;;;;;;;1.57;1.30;;;;;;;;;;6234408;28;20304;-73
2023/03/15 09:52:48;;;;;;;2.20;1.10;;;;;;;;;;6234615;28;20277;-73
2023/03/15 09:55:54;;;;;;;1.20;1.20;;;;;;;;;;6235894;28;20300;-75
2023/03/15 09:59:01;;;;;;;0.90;0.90;;;;;;;;;;6237681;28;20356;-75
2023/03/15 10:02:17;;;;;;;1.10;1.10;;;;;;;;;;6238353;28;20284;-74
2023/03/15 10:05:28;;;;;;;1.00;1.00;;;;;;;;;;6236740;28;20430;-75
2023/03/15 10:08:34;;;;;;;1.80;1.30;;;;;;;;;;6235421;28;20303;-74
2023/03/15 10:11:46;;;;;;;1.20;1.10;;;;;;;;;;6254070;28;20284;-76
2023/03/15 10:15:03;;;;;;;6.03;1.37;;;;;;;;;;6259552;28;20294;-75
2023/03/15 10:18:35;;;;;;;1.70;0.90;;;;;;;;;;6259398;28;20481;-75
2023/03/15 10:21:50;;;;;;;1.67;0.90;;;;;;;;;;6261433;28;20295;-75
2023/03/15 10:25:01;;;;;;;1.27;1.10;;;;;;;;;;6263040;28;20303;-75
2023/03/15 10:28:10;;;;;;;1.00;1.00;;;;;;;;;;6264292;28;20305;-75
2023/03/15 10:31:17;;;;;;;1.67;1.10;;;;;;;;;;6263759;28;20288;-75
2023/03/15 10:34:36;;;;;;;4.40;1.20;;;;;;;;;;6264150;28;20298;-74
2023/03/15 10:37:42;;;;;;;2.13;1.20;;;;;;;;;;6264556;28;20267;-74
2023/03/15 10:40:50;;;;;;;2.23;1.23;;;;;;;;;;6264540;28;20274;-74
2023/03/15 10:44:02;;;;;;;1.10;1.10;;;;;;;;;;6263183;28;20295;-75
2023/03/15 10:47:12;;;;;;;1.27;1.10;;;;;;;;;;6264262;28;20564;-74
2023/03/15 10:50:30;;;;;;;1.37;1.37;;;;;;;;;;6263684;28;20454;-75
2023/03/15 10:53:36;;;;;;;1.20;1.10;;;;;;;;;;6264018;28;20288;-74
2023/03/15 10:56:47;;;;;;;1.10;1.10;;;;;;;;;;6264625;28;20299;-74
2023/03/15 10:59:59;;;;;;;1.10;1.10;;;;;;;;;;6264036;28;20471;-74
2023/03/15 11:03:05;;;;;;;1.33;1.23;;;;;;;;;;6263860;28;20290;-75
2023/03/15 11:06:22;;;;;;;1.50;0.80;;;;;;;;;;6262907;28;20291;-75
2023/03/15 11:09:28;;;;;;;1.80;1.00;;;;;;;;;;6263119;28;20308;-74
2023/03/15 11:12:35;;;;;;;1.13;1.10;;;;;;;;;;6239386;28;20580;-78
2023/03/15 11:15:47;;;;;;;1.23;1.00;;;;;;;;;;6240424;28;20297;-75
2023/03/15 11:18:55;;;;;;;1.17;1.03;;;;;;;;;;6239105;28;20297;-74
2023/03/15 11:22:02;;;;;;;0.90;0.90;;;;;;;;;;6237905;28;20303;-74
2023/03/15 11:25:13;;;;;;;1.57;1.00;;;;;;;;;;6238572;28;20297;-75
2023/03/15 11:28:22;;;;;;;1.30;1.20;;;;;;;;;;6238798;28;20481;-74
2023/03/15 11:31:28;;;;;;;1.17;1.17;;;;;;;;;;6240379;28;20298;-75
2023/03/15 11:34:39;;;;;;;1.60;0.90;;;;;;;;;;6235129;28;20293;-73
2023/03/15 11:37:47;;;;;;;0.90;0.90;;;;;;;;;;6255944;28;20270;-73
2023/03/15 11:40:56;;;;;;;0.97;0.97;;;;;;;;;;6263798;28;20316;-75
2023/03/15 11:44:11;;;;;;;2.67;0.97;;;;;;;;;;6262802;28;20304;-75
2023/03/15 11:47:22;;;;;;;1.03;0.80;;;;;;;;;;6262016;28;20565;-73
2023/03/15 11:50:28;;;;;;;1.10;1.10;;;;;;;;;;6262695;28;20301;-74
2023/03/15 11:53:36;;;;;;;0.77;0.77;;;;;;;;;;6263074;28;20294;-74
2023/03/15 11:56:50;;;;;;;0.93;0.93;;;;;;;;;;6263522;28;20504;-74
2023/03/15 11:59:57;;;;;;;1.10;1.10;;;;;;;;;;6262665;28;20334;-75
2023/03/15 12:03:35;;;;;;;1.00;1.00;;;;;;;;;;6262181;28;20289;-72
2023/03/15 12:06:41;;;;;;;1.50;1.40;;;;;;;;;;6262833;28;20307;-74
2023/03/15 12:09:51;;;;;;;1.03;1.03;;;;;;;;;;6258665;28;20305;-73
2023/03/15 12:12:59;;;;;;;2.80;1.00;;;;;;;;;;6237093;28;20316;-73
2023/03/15 12:16:08;;;;;;;0.93;0.90;;;;;;;;;;6237830;28;20587;-74
2023/03/15 12:19:17;;;;;;;1.00;1.00;;;;;;;;;;6237503;28;20314;-75
2023/03/15 12:22:22;;;;;;;1.57;1.00;;;;;;;;;;6237641;28;20314;-74
2023/03/15 12:25:32;;;;;;;0.90;0.90;;;;;;;;;;6237372;28;20310;-74
2023/03/15 12:28:51;;;;;;;1.00;1.00;;;;;;;;;;6236102;28;20296;-74
2023/03/15 12:32:07;;;;;;;0.90;0.90;;;;;;;;;;6238114;28;20289;-74
2023/03/15 12:35:18;;;;;;;0.83;0.83;;;;;;;;;;6237230;28;20302;-74
2023/03/15 12:38:25;;;;;;;1.10;1.10;;;;;;;;;;6257106;28;20295;-76
2023/03/15 12:41:41;;;;;;;0.97;0.97;;;;;;;;;;6261929;28;20297;-73
2023/03/15 12:44:46;;;;;;;1.27;1.07;;;;;;;;;;6261219;28;20298;-74
2023/03/15 12:48:24;;;;;;;0.80;0.80;;;;;;;;;;6259834;28;20294;-76
2023/03/15 12:51:43;;;;;;;2.00;0.90;;;;;;;;;;6261921;28;20301;-75
2023/03/15 12:54:52;;;;;;;1.37;1.10;;;;;;;;;;6259536;28;20494;-75
2023/03/15 12:57:57;;;;;;;1.27;0.97;;;;;;;;;;6259984;28;20317;-74
2023/03/15 13:01:05;;;;;;;1.00;1.00;;;;;;;;;;6261242;28;20294;-75
2023/03/15 13:04:13;;;;;;;1.10;1.00;;;;;;;;;;6260997;28;20297;-74
2023/03/15 13:07:24;;;;;;;0.93;0.93;;;;;;;;;;6261230;28;20289;-74
2023/03/15 13:10:55;;;;;;;0.77;0.77;;;;;;;;;;6249854;28;20302;-74
2023/03/15 13:14:18;;;;;;;5.33;1.03;;;;;;;;;;6225167;28;20456;-74
2023/03/15 13:17:34;;;;;;;2.57;1.20;;;;;;;;;;6240216;28;20294;-75
2023/03/15 13:20:46;;;;;;;1.27;1.27;;;;;;;;;;6235087;28;20310;-74
2023/03/15 13:23:53;;;;;;;4.50;2.30;;;;;;;;;;6236653;28;20298;-75
2023/03/15 13:27:00;;;;;;;0.90;0.90;;;;;;;;;;6235333;28;20288;-74
2023/03/15 13:30:25;;;;;;;1.13;0.80;;;;;;;;;;6234439;28;20302;-75
2023/03/15 13:33:31;;;;;;;0.87;0.80;;;;;;;;;;6236055;28;20468;-75
2023/03/15 13:36:42;;;;;;;0.83;0.83;;;;;;;;;;6243304;28;20291;-74
2023/03/15 13:39:55;;;;;;;0.87;0.87;;;;;;;;;;6260568;28;20298;-74
2023/03/15 13:43:01;;;;;;;2.90;0.80;;;;;;;;;;6260809;28;20299;-75
2023/03/15 13:46:06;;;;;;;0.80;0.80;;;;;;;;;;6263531;28;20558;-75
2023/03/15 13:49:13;;;;;;;1.10;1.00;;;;;;;;;;6264620;28;20298;-75
2023/03/15 13:52:20;;;;;;;2.93;0.80;;;;;;;;;;6261775;28;20303;-75
2023/03/15 13:55:25;;;;;;;1.13;0.80;;;;;;;;;;6260538;28;20299;-74
2023/03/15 13:58:30;;;;;;;1.13;0.80;;;;;;;;;;6233704;28;20293;-75
2023/03/15 14:01:38;;;;;;;1.00;1.00;;;;;;;;;;6235818;28;20276;-75
2023/03/15 14:04:44;;;;;;;0.70;0.70;;;;;;;;;;6259942;28;20394;-74
2023/03/15 14:07:54;;;;;;;0.90;0.90;;;;;;;;;;6260232;28;20303;-75
2023/03/15 14:11:03;;;;;;;1.13;0.83;;;;;;;;;;6244319;28;20292;-75
2023/03/15 14:14:23;;;;;;;5.27;0.93;;;;;;;;;;6209880;28;20288;-75
2023/03/15 14:17:30;;;;;;;2.47;0.90;;;;;;;;;;6212169;28;20316;-74
2023/03/15 14:20:38;;;;;;;0.80;0.80;;;;;;;;;;6211038;28;20308;-75
2023/03/15 14:23:46;;;;;;;1.50;0.70;;;;;;;;;;6209729;28;20300;-75
2023/03/15 14:26:53;;;;;;;1.67;0.77;;;;;;;;;;6210236;28;20300;-75
2023/03/15 14:30:00;;;;;;;0.90;0.90;;;;;;;;;;6211179;28;20300;-74
2023/03/15 14:33:07;;;;;;;0.90;0.90;;;;;;;;;;6211371;28;20292;-75
2023/03/15 14:36:23;;;;;;;0.80;0.80;;;;;;;;;;6213531;28;20375;-75
2023/03/15 14:39:37;;;;;;;1.57;0.87;;;;;;;;;;6234797;28;20309;-75
2023/03/15 14:42:42;;;;;;;1.10;1.10;;;;;;;;;;6234796;28;20300;-75
2023/03/15 14:45:48;;;;;;;1.30;1.30;;;;;;;;;;6235601;28;20292;-75
2023/03/15 14:48:54;;;;;;;3.73;1.93;;;;;;;;;;6235028;28;20308;-74
2023/03/15 14:52:00;;;;;;;1.60;1.57;;;;;;;;;;6235934;28;20300;-74
2023/03/15 14:55:11;;;;;;;1.10;1.10;;;;;;;;;;6235660;28;20312;-75
2023/03/15 14:58:18;;;;;;;2.13;2.03;;;;;;;;;;6234560;28;20379;-75
2023/03/15 15:01:26;;;;;;;1.00;1.00;;;;;;;;;;6235389;28;20285;-73
2023/03/15 15:04:36;;;;;;;0.90;0.90;;;;;;;;;;6234669;28;20291;-72
2023/03/15 15:07:41;;;;;;;3.90;0.90;;;;;;;;;;6236228;28;20272;-75
2023/03/15 15:10:50;;;;;;;0.80;0.80;;;;;;;;;;6239528;28;20306;-74
2023/03/15 15:13:56;;;;;;;0.80;0.80;;;;;;;;;;6239272;28;20300;-72
2023/03/15 15:17:02;;;;;;;2.00;1.00;;;;;;;;;;6239174;28;20315;-74
2023/03/15 15:20:11;;;;;;;1.23;0.93;;;;;;;;;;6239432;28;20322;-74
2023/03/15 15:23:18;;;;;;;0.73;0.73;;;;;;;;;;6239172;28;20304;-73
2023/03/15 15:26:26;;;;;;;3.57;0.93;;;;;;;;;;6239348;28;20331;-73
2023/03/15 15:29:31;;;;;;;1.10;1.10;;;;;;;;;;6238483;28;20303;-74
2023/03/15 15:32:36;;;;;;;0.80;0.80;;;;;;;;;;6238469;28;20302;-74
2023/03/15 15:35:42;;;;;;;1.00;0.70;;;;;;;;;;6239170;28;20461;-73
2023/03/15 15:38:47;;;;;;;7.07;1.10;;;;;;;;;;6215431;28;20303;-73
2023/03/15 15:41:54;;;;;;;0.80;0.80;;;;;;;;;;6215375;28;20304;-73
2023/03/15 15:44:59;;;;;;;0.80;0.80;;;;;;;;;;6214556;28;20299;-73
2023/03/15 15:48:05;;;;;;;0.93;0.93;;;;;;;;;;6212923;28;20311;-74
2023/03/15 15:51:28;;;;;;;1.03;1.03;;;;;;;;;;6214552;28;20298;-73
2023/03/15 15:54:35;;;;;;;1.60;1.00;;;;;;;;;;6214396;28;20304;-72
2023/03/15 15:57:42;;;;;;;0.90;0.90;;;;;;;;;;6214386;28;20296;-73
2023/03/15 16:00:47;;;;;;;8.77;1.00;;;;;;;;;;6214717;28;20303;-73
2023/03/15 16:03:53;;;;;;;0.80;0.80;;;;;;;;;;6214389;28;20350;-73
2023/03/15 16:07:00;;;;;;;2.03;0.90;;;;;;;;;;6214272;28;20299;-73
2023/03/15 16:10:08;;;;;;;0.70;0.70;;;;;;;;;;6218881;28;20310;-76
2023/03/15 16:13:15;;;;;;;2.90;0.80;;;;;;;;;;6237105;28;20302;-75
2023/03/15 16:16:20;;;;;;;2.67;1.10;;;;;;;;;;6237705;28;20290;-74
2023/03/15 16:19:26;;;;;;;2.83;0.97;;;;;;;;;;6235420;28;20477;-75
2023/03/15 16:22:31;;;;;;;1.40;0.83;;;;;;;;;;6237140;28;20299;-74
2023/03/15 16:25:37;;;;;;;1.07;1.07;;;;;;;;;;6236848;28;20275;-75
2023/03/15 16:28:45;;;;;;;3.27;0.87;;;;;;;;;;6239212;28;20468;-75
2023/03/15 16:31:50;;;;;;;0.80;0.80;;;;;;;;;;6238083;28;20322;-75
2023/03/15 16:34:56;;;;;;;1.13;0.80;;;;;;;;;;6237525;28;20294;-74
2023/03/15 16:38:06;;;;;;;1.73;1.07;;;;;;;;;;6221436;28;20267;-73
2023/03/15 16:41:12;;;;;;;1.40;0.90;;;;;;;;;;6213979;28;20623;-74
2023/03/15 16:44:20;;;;;;;3.63;0.87;;;;;;;;;;6214141;28;20297;-73
2023/03/15 16:47:26;;;;;;;2.37;0.90;;;;;;;;;;6214733;28;20411;-71
2023/03/15 16:50:31;;;;;;;5.33;1.20;;;;;;;;;;6214042;28;20308;-74
2023/03/15 16:53:37;;;;;;;2.03;1.10;;;;;;;;;;6214523;28;20306;-75
2023/03/15 16:56:44;;;;;;;0.90;0.90;;;;;;;;;;6213439;28;20295;-74
2023/03/15 16:59:51;;;;;;;1.07;1.07;;;;;;;;;;6215420;28;20430;-75
2023/03/15 17:02:58;;;;;;;1.00;1.00;;;;;;;;;;6215695;28;20296;-74
2023/03/15 17:06:04;;;;;;;1.00;1.00;;;;;;;;;;6216384;28;20299;-74
2023/03/15 17:09:13;;;;;;;1.10;1.10;;;;;;;;;;6214544;28;20312;-75
2023/03/15 17:12:21;;;;;;;3.27;1.13;;;;;;;;;;6239673;28;20489;-75
2023/03/15 17:15:29;;;;;;;5.83;1.10;;;;;;;;;;6239360;28;20298;-74
2023/03/15 17:18:34;;;;;;;2.53;1.10;;;;;;;;;;6240145;28;20298;-74
2023/03/15 17:21:40;;;;;;;1.00;1.00;;;;;;;;;;6240990;28;20298;-75
2023/03/15 17:24:45;;;;;;;3.07;1.13;;;;;;;;;;6238812;28;20323;-74
2023/03/15 17:27:51;;;;;;;0.97;0.97;;;;;;;;;;6239431;28;20306;-75
2023/03/15 17:30:59;;;;;;;4.70;1.00;;;;;;;;;;6239060;28;20294;-75
2023/03/15 17:34:25;;;;;;;1.73;0.93;;;;;;;;;;6239520;28;20460;-73
2023/03/15 17:37:32;;;;;;;6.47;0.93;;;;;;;;;;6226874;28;20590;-73
2023/03/15 17:40:37;;;;;;;1.30;1.00;;;;;;;;;;6215731;28;20293;-75
2023/03/15 17:43:43;;;;;;;3.10;1.00;;;;;;;;;;6216243;28;20302;-75
2023/03/15 17:46:49;;;;;;;3.70;1.23;;;;;;;;;;6216135;28;20270;-75
2023/03/15 17:49:55;;;;;;;2.57;1.10;;;;;;;;;;6215256;28;20296;-73
2023/03/15 17:53:02;;;;;;;0.90;0.90;;;;;;;;;;6214901;28;20296;-75
2023/03/15 17:56:08;;;;;;;1.43;1.40;;;;;;;;;;6216969;28;20450;-76
2023/03/15 17:59:13;;;;;;;3.03;0.90;;;;;;;;;;6214933;28;20294;-75
2023/03/15 18:02:20;;;;;;;1.10;1.10;;;;;;;;;;6216256;28;20300;-75
2023/03/15 18:05:27;;;;;;;7.00;1.30;;;;;;;;;;6215299;28;20300;-74
2023/03/15 18:08:32;;;;;;;1.87;1.10;;;;;;;;;;6215831;28;20308;-76
2023/03/15 18:11:40;;;;;;;1.73;1.03;;;;;;;;;;6233289;28;20286;-74
2023/03/15 18:14:46;;;;;;;1.27;0.90;;;;;;;;;;6238663;28;20305;-74
2023/03/15 18:17:52;;;;;;;4.13;1.13;;;;;;;;;;6239114;28;20288;-74
2023/03/15 18:20:58;;;;;;;0.97;0.97;;;;;;;;;;6238550;28;20292;-72
2023/03/15 18:24:03;;;;;;;1.17;1.00;;;;;;;;;;6237690;28;20302;-71
2023/03/15 18:27:09;;;;;;;1.23;1.10;;;;;;;;;;6237791;28;20286;-72
2023/03/15 18:30:16;;;;;;;1.80;1.10;;;;;;;;;;6238718;28;20297;-75
2023/03/15 18:33:23;;;;;;;1.20;1.13;;;;;;;;;;6237360;28;20301;-76
2023/03/15 18:36:28;;;;;;;3.23;1.03;;;;;;;;;;6232224;28;20290;-77
2023/03/15 18:39:33;;;;;;;1.23;1.20;;;;;;;;;;6211470;28;20304;-78
2023/03/15 18:42:38;;;;;;;1.17;1.07;;;;;;;;;;6210709;28;20315;-77
2023/03/15 18:45:43;;;;;;;1.03;1.03;;;;;;;;;;6216705;28;20344;-75
2023/03/15 18:48:52;;;;;;;1.10;1.00;;;;;;;;;;6215758;28;20486;-76
2023/03/15 18:51:58;;;;;;;2.70;1.10;;;;;;;;;;6216344;28;20307;-75
2023/03/15 18:55:03;;;;;;;1.03;0.97;;;;;;;;;;6216057;28;20484;-74